sensor_id;sensor_type;location;lat;lon;timestamp;pressure;altitude;pressure_sealevel;temperature;humidity
55217;BME280;41086;46.736;15.666;2023-07-22T00:00:39;98143.78;;;21.76;100.00
55217;BME280;41086;46.736;15.666;2023-07-22T00:03:07;98123.97;;;21.83;100.00
55217;BME280;41086;46.736;15.666;2023-07-22T00:05:33;98160.25;;;22.10;100.00
55217;BME280;41086;46.736;15.666;2023-07-22T00:08:00;98144.56;;;21.46;100.00
55217;BME280;41086;46.736;15.666;2023-07-22T00:10:27;98149.19;;;21.15;100.00
55217;BME280;41086;46.736;15.666;2023-07-22T00:12:54;98162.97;;;20.97;100.00
55217;BME280;41086;46.736;15.666;2023-07-22T00:15:21;98185.06;;;21.38;100.00
55217;BME280;41086;46.736;15.666;2023-07-22T00:17:51;98187.53;;;21.63;100.00
55217;BME280;41086;46.736;15.666;2023-07-22T00:20:18;98198.34;;;21.63;100.00
55217;BME280;41086;46.736;15.666;2023-07-22T00:22:46;98191.19;;;21.70;100.00
55217;BME280;41086;46.736;15.666;2023-07-22T00:25:13;98181.72;;;21.74;100.00
55217;BME280;41086;46.736;15.666;2023-07-22T00:27:41;98167.13;;;21.83;100.00
55217;BME280;41086;46.736;15.666;2023-07-22T00:30:09;98200.44;;;21.90;100.00
55217;BME280;41086;46.736;15.666;2023-07-22T00:32:36;98207.44;;;21.62;100.00
55217;BME280;41086;46.736;15.666;2023-07-22T00:35:07;98197.69;;;21.61;100.00
55217;BME280;41086;46.736;15.666;2023-07-22T00:37:36;98206.78;;;21.60;100.00
55217;BME280;41086;46.736;15.666;2023-07-22T00:40:03;98161.09;;;21.43;100.00
55217;BME280;41086;46.736;15.666;2023-07-22T00:42:39;98198.53;;;21.61;100.00
55217;BME280;41086;46.736;15.666;2023-07-22T00:45:07;98199.78;;;21.28;100.00
55217;BME280;41086;46.736;15.666;2023-07-22T00:47:35;98206.16;;;21.12;100.00
55217;BME280;41086;46.736;15.666;2023-07-22T00:50:03;98221.22;;;21.67;100.00
55217;BME280;41086;46.736;15.666;2023-07-22T00:52:30;98198.38;;;21.78;100.00
55217;BME280;41086;46.736;15.666;2023-07-22T00:54:57;98223.25;;;21.50;100.00
55217;BME280;41086;46.736;15.666;2023-07-22T00:57:27;98223.25;;;21.19;100.00
55217;BME280;41086;46.736;15.666;2023-07-22T00:59:54;98232.38;;;21.18;100.00
55217;BME280;41086;46.736;15.666;2023-07-22T01:02:22;98227.53;;;21.36;100.00
55217;BME280;41086;46.736;15.666;2023-07-22T01:04:50;98219.34;;;21.53;100.00
55217;BME280;41086;46.736;15.666;2023-07-22T01:07:19;98207.75;;;21.44;100.00
55217;BME280;41086;46.736;15.666;2023-07-22T01:09:46;98226.91;;;21.26;100.00
55217;BME280;41086;46.736;15.666;2023-07-22T01:12:12;98222.78;;;21.15;100.00
55217;BME280;41086;46.736;15.666;2023-07-22T01:14:41;98218.31;;;21.31;100.00
55217;BME280;41086;46.736;15.666;2023-07-22T01:17:09;98216.97;;;21.50;100.00
55217;BME280;41086;46.736;15.666;2023-07-22T01:19:37;98202.53;;;21.65;100.00
55217;BME280;41086;46.736;15.666;2023-07-22T01:22:05;98222.03;;;21.53;100.00
55217;BME280;41086;46.736;15.666;2023-07-22T01:24:34;98224.03;;;21.28;100.00
55217;BME280;41086;46.736;15.666;2023-07-22T01:27:01;98226.66;;;21.13;100.00
55217;BME280;41086;46.736;15.666;2023-07-22T01:29:30;98203.44;;;21.12;100.00
55217;BME280;41086;46.736;15.666;2023-07-22T01:31:56;98224.06;;;21.51;100.00
55217;BME280;41086;46.736;15.666;2023-07-22T01:34:23;98223.88;;;21.52;100.00
55217;BME280;41086;46.736;15.666;2023-07-22T01:36:52;98245.22;;;21.77;100.00
55217;BME280;41086;46.736;15.666;2023-07-22T01:39:19;98243.63;;;21.90;100.00
55217;BME280;41086;46.736;15.666;2023-07-22T01:41:46;98253.13;;;22.01;100.00
55217;BME280;41086;46.736;15.666;2023-07-22T01:44:14;98244.03;;;21.79;100.00
55217;BME280;41086;46.736;15.666;2023-07-22T01:46:41;98241.38;;;21.56;100.00
55217;BME280;41086;46.736;15.666;2023-07-22T01:49:10;98249.06;;;21.13;100.00
55217;BME280;41086;46.736;15.666;2023-07-22T01:51:40;98258.16;;;20.81;100.00
55217;BME280;41086;46.736;15.666;2023-07-22T01:54:07;98265.16;;;20.98;100.00
55217;BME280;41086;46.736;15.666;2023-07-22T01:56:38;98242.63;;;20.91;100.00
55217;BME280;41086;46.736;15.666;2023-07-22T01:59:05;98268.47;;;21.32;100.00
55217;BME280;41086;46.736;15.666;2023-07-22T02:01:32;98260.25;;;21.56;100.00
55217;BME280;41086;46.736;15.666;2023-07-22T02:03:59;98262.34;;;21.69;100.00
55217;BME280;41086;46.736;15.666;2023-07-22T02:06:27;98244.09;;;21.71;100.00
55217;BME280;41086;46.736;15.666;2023-07-22T02:08:56;98237.13;;;21.77;100.00
55217;BME280;41086;46.736;15.666;2023-07-22T02:11:23;98278.53;;;22.07;100.00
55217;BME280;41086;46.736;15.666;2023-07-22T02:13:49;98282.00;;;21.92;100.00
55217;BME280;41086;46.736;15.666;2023-07-22T02:16:16;98271.22;;;21.92;100.00
55217;BME280;41086;46.736;15.666;2023-07-22T02:18:43;98279.00;;;21.50;100.00
55217;BME280;41086;46.736;15.666;2023-07-22T02:21:10;98291.31;;;21.44;100.00
55217;BME280;41086;46.736;15.666;2023-07-22T02:23:37;98264.75;;;21.33;100.00
55217;BME280;41086;46.736;15.666;2023-07-22T02:26:04;98289.00;;;21.41;100.00
55217;BME280;41086;46.736;15.666;2023-07-22T02:28:31;98293.00;;;21.68;100.00
55217;BME280;41086;46.736;15.666;2023-07-22T02:31:01;98299.00;;;22.01;100.00
55217;BME280;41086;46.736;15.666;2023-07-22T02:33:31;98285.00;;;21.98;100.00
55217;BME280;41086;46.736;15.666;2023-07-22T02:35:58;98308.94;;;22.24;100.00
55217;BME280;41086;46.736;15.666;2023-07-22T02:38:25;98288.06;;;21.95;100.00
55217;BME280;41086;46.736;15.666;2023-07-22T02:40:52;98309.63;;;22.18;99.40
55217;BME280;41086;46.736;15.666;2023-07-22T02:43:19;98312.47;;;22.24;100.00
55217;BME280;41086;46.736;15.666;2023-07-22T02:45:45;98288.97;;;22.10;99.64
55217;BME280;41086;46.736;15.666;2023-07-22T02:48:12;98317.69;;;22.03;100.00
55217;BME280;41086;46.736;15.666;2023-07-22T02:50:39;98286.34;;;21.79;100.00
55217;BME280;41086;46.736;15.666;2023-07-22T02:53:07;98322.47;;;21.92;100.00
55217;BME280;41086;46.736;15.666;2023-07-22T02:55:34;98318.66;;;21.87;100.00
55217;BME280;41086;46.736;15.666;2023-07-22T02:58:00;98329.47;;;21.64;100.00
55217;BME280;41086;46.736;15.666;2023-07-22T03:00:27;98317.47;;;21.66;100.00
55217;BME280;41086;46.736;15.666;2023-07-22T03:02:55;98314.16;;;22.17;100.00
55217;BME280;41086;46.736;15.666;2023-07-22T03:05:32;98346.50;;;22.25;100.00
55217;BME280;41086;46.736;15.666;2023-07-22T03:07:59;98351.28;;;22.38;100.00
55217;BME280;41086;46.736;15.666;2023-07-22T03:10:25;98353.16;;;22.52;100.00
55217;BME280;41086;46.736;15.666;2023-07-22T03:12:53;98346.56;;;22.55;100.00
55217;BME280;41086;46.736;15.666;2023-07-22T03:15:22;98328.41;;;22.49;99.08
55217;BME280;41086;46.736;15.666;2023-07-22T03:17:49;98341.72;;;22.50;96.01
55217;BME280;41086;46.736;15.666;2023-07-22T03:20:16;98342.47;;;22.59;97.96
55217;BME280;41086;46.736;15.666;2023-07-22T03:22:46;98345.38;;;22.72;96.20
55217;BME280;41086;46.736;15.666;2023-07-22T03:25:14;98285.94;;;22.43;95.64
55217;BME280;41086;46.736;15.666;2023-07-22T03:27:44;98347.03;;;22.73;96.33
55217;BME280;41086;46.736;15.666;2023-07-22T03:30:16;98324.31;;;22.68;94.98
55217;BME280;41086;46.736;15.666;2023-07-22T03:32:45;98322.06;;;22.71;94.08
55217;BME280;41086;46.736;15.666;2023-07-22T03:35:13;98329.16;;;22.72;93.33
55217;BME280;41086;46.736;15.666;2023-07-22T03:37:40;98333.44;;;22.67;93.92
55217;BME280;41086;46.736;15.666;2023-07-22T03:40:08;98232.44;;;21.94;93.73
55217;BME280;41086;46.736;15.666;2023-07-22T03:42:49;98330.34;;;22.17;95.40
55217;BME280;41086;46.736;15.666;2023-07-22T03:45:17;98331.00;;;22.04;98.48
55217;BME280;41086;46.736;15.666;2023-07-22T03:47:45;98324.78;;;21.81;98.59
55217;BME280;41086;46.736;15.666;2023-07-22T03:50:12;98321.25;;;21.80;100.00
55217;BME280;41086;46.736;15.666;2023-07-22T03:52:39;98332.66;;;22.05;98.46
55217;BME280;41086;46.736;15.666;2023-07-22T03:55:06;98342.25;;;22.31;98.11
55217;BME280;41086;46.736;15.666;2023-07-22T03:57:34;98343.03;;;22.40;96.04
55217;BME280;41086;46.736;15.666;2023-07-22T04:00:03;98346.69;;;22.01;96.84
55217;BME280;41086;46.736;15.666;2023-07-22T04:02:38;98339.34;;;21.72;98.74
55217;BME280;41086;46.736;15.666;2023-07-22T04:05:05;98352.53;;;22.12;99.55
55217;BME280;41086;46.736;15.666;2023-07-22T04:07:32;98363.03;;;22.45;97.54
55217;BME280;41086;46.736;15.666;2023-07-22T04:09:59;98344.59;;;22.34;94.33
55217;BME280;41086;46.736;15.666;2023-07-22T04:12:26;98353.78;;;22.25;95.32
55217;BME280;41086;46.736;15.666;2023-07-22T04:14:53;98371.84;;;22.39;95.74
55217;BME280;41086;46.736;15.666;2023-07-22T04:17:20;98367.78;;;22.43;93.70
55217;BME280;41086;46.736;15.666;2023-07-22T04:19:48;98372.28;;;22.51;94.07
55217;BME280;41086;46.736;15.666;2023-07-22T04:22:14;98377.59;;;22.59;92.70
55217;BME280;41086;46.736;15.666;2023-07-22T04:24:41;98373.84;;;22.60;92.14
55217;BME280;41086;46.736;15.666;2023-07-22T04:27:09;98375.88;;;22.43;91.56
55217;BME280;41086;46.736;15.666;2023-07-22T04:29:35;98385.03;;;21.96;96.86
55217;BME280;41086;46.736;15.666;2023-07-22T04:32:06;98371.91;;;21.39;100.00
55217;BME280;41086;46.736;15.666;2023-07-22T04:34:33;98383.81;;;21.05;100.00
55217;BME280;41086;46.736;15.666;2023-07-22T04:37:01;98367.75;;;20.80;100.00
55217;BME280;41086;46.736;15.666;2023-07-22T04:39:28;98378.97;;;20.92;100.00
55217;BME280;41086;46.736;15.666;2023-07-22T04:41:55;98349.53;;;20.91;100.00
55217;BME280;41086;46.736;15.666;2023-07-22T04:44:22;98370.78;;;21.17;100.00
55217;BME280;41086;46.736;15.666;2023-07-22T04:46:50;98374.03;;;21.12;100.00
55217;BME280;41086;46.736;15.666;2023-07-22T04:49:27;98360.06;;;21.09;100.00
55217;BME280;41086;46.736;15.666;2023-07-22T04:51:54;98381.22;;;21.28;100.00
55217;BME280;41086;46.736;15.666;2023-07-22T04:54:21;98370.06;;;21.31;100.00
55217;BME280;41086;46.736;15.666;2023-07-22T04:56:48;98381.22;;;21.28;100.00
55217;BME280;41086;46.736;15.666;2023-07-22T04:59:15;98374.78;;;21.37;100.00
55217;BME280;41086;46.736;15.666;2023-07-22T05:01:42;98405.91;;;21.48;100.00
55217;BME280;41086;46.736;15.666;2023-07-22T05:04:10;98400.41;;;21.64;100.00
55217;BME280;41086;46.736;15.666;2023-07-22T05:06:37;98392.25;;;21.41;100.00
55217;BME280;41086;46.736;15.666;2023-07-22T05:09:04;98400.81;;;21.53;100.00
55217;BME280;41086;46.736;15.666;2023-07-22T05:11:30;98415.28;;;21.83;100.00
55217;BME280;41086;46.736;15.666;2023-07-22T05:13:57;98415.75;;;21.87;100.00
55217;BME280;41086;46.736;15.666;2023-07-22T05:16:24;98400.31;;;21.81;100.00
55217;BME280;41086;46.736;15.666;2023-07-22T05:18:52;98377.44;;;21.68;100.00
55217;BME280;41086;46.736;15.666;2023-07-22T05:21:19;98400.63;;;21.86;100.00
55217;BME280;41086;46.736;15.666;2023-07-22T05:23:46;98405.28;;;21.69;100.00
55217;BME280;41086;46.736;15.666;2023-07-22T05:26:14;98414.78;;;21.57;100.00
55217;BME280;41086;46.736;15.666;2023-07-22T05:28:40;98421.94;;;21.73;100.00
55217;BME280;41086;46.736;15.666;2023-07-22T05:31:07;98407.72;;;21.79;100.00
55217;BME280;41086;46.736;15.666;2023-07-22T05:33:34;98433.34;;;22.06;100.00
55217;BME280;41086;46.736;15.666;2023-07-22T05:36:01;98427.25;;;22.35;100.00
55217;BME280;41086;46.736;15.666;2023-07-22T05:38:27;98380.13;;;22.14;100.00
55217;BME280;41086;46.736;15.666;2023-07-22T05:40:54;98425.91;;;22.54;100.00
55217;BME280;41086;46.736;15.666;2023-07-22T05:43:21;98429.75;;;22.74;100.00
55217;BME280;41086;46.736;15.666;2023-07-22T05:45:48;98431.50;;;23.05;97.26
55217;BME280;41086;46.736;15.666;2023-07-22T05:48:15;98443.50;;;23.17;94.44
55217;BME280;41086;46.736;15.666;2023-07-22T05:50:42;98416.84;;;23.29;95.48
55217;BME280;41086;46.736;15.666;2023-07-22T05:53:09;98437.63;;;23.29;92.65
55217;BME280;41086;46.736;15.666;2023-07-22T05:55:37;98432.41;;;23.42;92.57
55217;BME280;41086;46.736;15.666;2023-07-22T05:58:04;98414.56;;;23.48;93.73
55217;BME280;41086;46.736;15.666;2023-07-22T06:00:35;98410.19;;;23.47;92.02
55217;BME280;41086;46.736;15.666;2023-07-22T06:03:02;98437.16;;;23.91;91.85
55217;BME280;41086;46.736;15.666;2023-07-22T06:05:30;98425.59;;;23.97;88.03
55217;BME280;41086;46.736;15.666;2023-07-22T06:07:56;98433.19;;;24.08;87.59
55217;BME280;41086;46.736;15.666;2023-07-22T06:10:24;98450.31;;;24.37;89.15
55217;BME280;41086;46.736;15.666;2023-07-22T06:12:52;98449.13;;;24.61;88.75
55217;BME280;41086;46.736;15.666;2023-07-22T06:15:19;98464.78;;;24.94;85.53
55217;BME280;41086;46.736;15.666;2023-07-22T06:17:45;98464.38;;;24.97;85.18
55217;BME280;41086;46.736;15.666;2023-07-22T06:20:13;98456.28;;;25.25;83.83
55217;BME280;41086;46.736;15.666;2023-07-22T06:22:42;98462.97;;;25.29;78.95
55217;BME280;41086;46.736;15.666;2023-07-22T06:25:10;98427.81;;;25.56;80.28
55217;BME280;41086;46.736;15.666;2023-07-22T06:27:38;98466.41;;;25.93;74.21
55217;BME280;41086;46.736;15.666;2023-07-22T06:30:05;98465.19;;;26.02;74.75
55217;BME280;41086;46.736;15.666;2023-07-22T06:32:34;98468.16;;;25.65;75.94
55217;BME280;41086;46.736;15.666;2023-07-22T06:35:01;98467.25;;;25.93;75.46
55217;BME280;41086;46.736;15.666;2023-07-22T06:37:27;98470.97;;;25.85;73.79
55217;BME280;41086;46.736;15.666;2023-07-22T06:39:55;98446.84;;;25.21;77.52
55217;BME280;41086;46.736;15.666;2023-07-22T06:42:22;98479.59;;;25.54;76.10
55217;BME280;41086;46.736;15.666;2023-07-22T06:44:49;98470.56;;;25.89;74.68
55217;BME280;41086;46.736;15.666;2023-07-22T06:47:16;98475.88;;;26.30;72.21
55217;BME280;41086;46.736;15.666;2023-07-22T06:49:43;98458.34;;;26.33;73.57
55217;BME280;41086;46.736;15.666;2023-07-22T06:52:13;98466.50;;;26.39;70.99
55217;BME280;41086;46.736;15.666;2023-07-22T06:54:40;98482.19;;;26.44;69.24
55217;BME280;41086;46.736;15.666;2023-07-22T06:57:08;98484.34;;;26.75;72.42
55217;BME280;41086;46.736;15.666;2023-07-22T06:59:35;98491.22;;;26.84;72.30
55217;BME280;41086;46.736;15.666;2023-07-22T07:02:05;98464.47;;;26.88;70.36
55217;BME280;41086;46.736;15.666;2023-07-22T07:04:32;98485.56;;;27.26;70.74
55217;BME280;41086;46.736;15.666;2023-07-22T07:06:59;98490.09;;;27.58;70.27
55217;BME280;41086;46.736;15.666;2023-07-22T07:09:26;98505.13;;;27.81;68.03
55217;BME280;41086;46.736;15.666;2023-07-22T07:11:53;98503.47;;;27.67;70.57
55217;BME280;41086;46.736;15.666;2023-07-22T07:14:23;98510.66;;;27.34;70.14
55217;BME280;41086;46.736;15.666;2023-07-22T07:16:51;98519.69;;;27.22;70.94
55217;BME280;41086;46.736;15.666;2023-07-22T07:19:18;98524.91;;;27.36;73.34
55217;BME280;41086;46.736;15.666;2023-07-22T07:21:44;98501.81;;;27.59;72.61
55217;BME280;41086;46.736;15.666;2023-07-22T07:24:11;98517.41;;;27.97;72.30
55217;BME280;41086;46.736;15.666;2023-07-22T07:26:38;98514.38;;;28.18;69.30
55217;BME280;41086;46.736;15.666;2023-07-22T07:29:04;98518.94;;;28.24;69.11
55217;BME280;41086;46.736;15.666;2023-07-22T07:31:31;98522.00;;;28.48;70.11
55217;BME280;41086;46.736;15.666;2023-07-22T07:33:59;98492.31;;;28.26;68.62
55217;BME280;41086;46.736;15.666;2023-07-22T07:36:26;98527.53;;;28.66;64.92
55217;BME280;41086;46.736;15.666;2023-07-22T07:38:53;98527.84;;;28.77;67.18
55217;BME280;41086;46.736;15.666;2023-07-22T07:41:20;98532.38;;;28.58;64.74
55217;BME280;41086;46.736;15.666;2023-07-22T07:43:47;98539.72;;;28.64;65.75
55217;BME280;41086;46.736;15.666;2023-07-22T07:46:24;98536.72;;;28.97;63.80
55217;BME280;41086;46.736;15.666;2023-07-22T07:48:55;98538.31;;;28.80;61.33
55217;BME280;41086;46.736;15.666;2023-07-22T07:51:24;98537.72;;;28.78;62.93
55217;BME280;41086;46.736;15.666;2023-07-22T07:53:54;98542.84;;;28.61;58.50
55217;BME280;41086;46.736;15.666;2023-07-22T07:56:21;98541.94;;;28.35;59.87
55217;BME280;41086;46.736;15.666;2023-07-22T07:58:48;98540.19;;;28.86;61.87
55217;BME280;41086;46.736;15.666;2023-07-22T08:01:16;98548.69;;;29.46;59.95
55217;BME280;41086;46.736;15.666;2023-07-22T08:03:43;98550.19;;;29.24;55.31
55217;BME280;41086;46.736;15.666;2023-07-22T08:06:11;98553.38;;;29.39;57.76
55217;BME280;41086;46.736;15.666;2023-07-22T08:08:38;98551.53;;;29.76;57.87
55217;BME280;41086;46.736;15.666;2023-07-22T08:11:10;98544.00;;;30.45;57.90
55217;BME280;41086;46.736;15.666;2023-07-22T08:13:37;98544.56;;;30.47;52.78
55217;BME280;41086;46.736;15.666;2023-07-22T08:16:05;98542.47;;;30.13;53.61
55217;BME280;41086;46.736;15.666;2023-07-22T08:18:34;98548.00;;;30.43;54.75
55217;BME280;41086;46.736;15.666;2023-07-22T08:21:02;98545.13;;;30.80;53.00
55217;BME280;41086;46.736;15.666;2023-07-22T08:23:30;98547.13;;;29.94;47.81
55217;BME280;41086;46.736;15.666;2023-07-22T08:25:57;98540.47;;;30.08;47.21
55217;BME280;41086;46.736;15.666;2023-07-22T08:28:24;98544.63;;;30.59;50.40
55217;BME280;41086;46.736;15.666;2023-07-22T08:30:55;98550.91;;;31.02;47.21
55217;BME280;41086;46.736;15.666;2023-07-22T08:33:23;98558.81;;;31.33;47.58
55217;BME280;41086;46.736;15.666;2023-07-22T08:36:07;98537.03;;;31.74;47.68
55217;BME280;41086;46.736;15.666;2023-07-22T08:38:35;98526.63;;;31.88;46.12
55217;BME280;41086;46.736;15.666;2023-07-22T08:41:02;98548.53;;;32.40;47.26
55217;BME280;41086;46.736;15.666;2023-07-22T08:43:29;98552.34;;;32.67;46.99
55217;BME280;41086;46.736;15.666;2023-07-22T08:46:00;98537.13;;;32.31;44.24
55217;BME280;41086;46.736;15.666;2023-07-22T08:48:31;98545.78;;;32.40;45.33
55217;BME280;41086;46.736;15.666;2023-07-22T08:51:10;98544.34;;;32.49;46.25
55217;BME280;41086;46.736;15.666;2023-07-22T08:53:39;98545.94;;;32.62;45.83
55217;BME280;41086;46.736;15.666;2023-07-22T08:56:08;98533.72;;;32.70;45.24
55217;BME280;41086;46.736;15.666;2023-07-22T08:58:35;98543.19;;;33.07;46.42
55217;BME280;41086;46.736;15.666;2023-07-22T09:01:02;98555.38;;;32.83;44.26
55217;BME280;41086;46.736;15.666;2023-07-22T09:03:30;98554.88;;;32.86;44.25
55217;BME280;41086;46.736;15.666;2023-07-22T09:05:57;98553.03;;;32.75;44.10
55217;BME280;41086;46.736;15.666;2023-07-22T09:08:24;98537.81;;;32.38;45.05
55217;BME280;41086;46.736;15.666;2023-07-22T09:10:51;98548.00;;;33.00;46.09
55217;BME280;41086;46.736;15.666;2023-07-22T09:13:19;98558.81;;;33.41;43.75
55217;BME280;41086;46.736;15.666;2023-07-22T09:15:47;98550.47;;;32.85;43.95
55217;BME280;41086;46.736;15.666;2023-07-22T09:18:16;98547.94;;;33.12;43.37
55217;BME280;41086;46.736;15.666;2023-07-22T09:20:43;98548.97;;;33.62;43.11
55217;BME280;41086;46.736;15.666;2023-07-22T09:23:11;98546.00;;;33.63;43.42
55217;BME280;41086;46.736;15.666;2023-07-22T09:25:41;98549.13;;;33.72;42.79
55217;BME280;41086;46.736;15.666;2023-07-22T09:28:09;98547.13;;;34.06;42.66
55217;BME280;41086;46.736;15.666;2023-07-22T09:30:38;98550.16;;;33.88;42.15
55217;BME280;41086;46.736;15.666;2023-07-22T09:33:08;98548.22;;;33.66;41.95
55217;BME280;41086;46.736;15.666;2023-07-22T09:35:49;98546.75;;;33.59;42.17
55217;BME280;41086;46.736;15.666;2023-07-22T09:38:25;98542.66;;;33.27;41.59
55217;BME280;41086;46.736;15.666;2023-07-22T09:40:52;98546.28;;;33.28;43.11
55217;BME280;41086;46.736;15.666;2023-07-22T09:43:23;98540.91;;;32.87;42.38
55217;BME280;41086;46.736;15.666;2023-07-22T09:45:50;98548.78;;;32.84;44.53
55217;BME280;41086;46.736;15.666;2023-07-22T09:48:17;98537.72;;;32.62;44.62
55217;BME280;41086;46.736;15.666;2023-07-22T09:50:44;98540.88;;;32.42;44.72
55217;BME280;41086;46.736;15.666;2023-07-22T09:53:15;98548.41;;;32.47;45.21
55217;BME280;41086;46.736;15.666;2023-07-22T09:55:43;98550.66;;;32.38;45.24
55217;BME280;41086;46.736;15.666;2023-07-22T09:58:10;98556.41;;;32.36;44.48
55217;BME280;41086;46.736;15.666;2023-07-22T10:00:47;98552.75;;;32.31;45.24
55217;BME280;41086;46.736;15.666;2023-07-22T10:03:15;98544.09;;;32.10;45.30
55217;BME280;41086;46.736;15.666;2023-07-22T10:05:43;98544.75;;;32.29;46.23
55217;BME280;41086;46.736;15.666;2023-07-22T10:08:14;98552.00;;;32.47;46.27
55217;BME280;41086;46.736;15.666;2023-07-22T10:10:44;98539.41;;;32.63;46.51
55217;BME280;41086;46.736;15.666;2023-07-22T10:13:11;98532.75;;;32.76;45.02
55217;BME280;41086;46.736;15.666;2023-07-22T10:15:38;98547.34;;;32.64;44.53
55217;BME280;41086;46.736;15.666;2023-07-22T10:18:05;98539.97;;;32.65;43.43
55217;BME280;41086;46.736;15.666;2023-07-22T10:20:33;98537.72;;;32.79;43.91
55217;BME280;41086;46.736;15.666;2023-07-22T10:23:04;98547.50;;;33.03;43.92
55217;BME280;41086;46.736;15.666;2023-07-22T10:25:31;98516.84;;;33.06;43.57
55217;BME280;41086;46.736;15.666;2023-07-22T10:27:58;98538.59;;;33.47;42.04
55217;BME280;41086;46.736;15.666;2023-07-22T10:30:25;98540.00;;;33.32;43.79
55217;BME280;41086;46.736;15.666;2023-07-22T10:32:53;98529.28;;;33.14;42.40
55217;BME280;41086;46.736;15.666;2023-07-22T10:38:09;98540.03;;;33.16;43.50
55217;BME280;41086;46.736;15.666;2023-07-22T10:40:55;98538.59;;;33.47;45.51
55217;BME280;41086;46.736;15.666;2023-07-22T10:43:32;98532.66;;;33.72;44.35
55217;BME280;41086;46.736;15.666;2023-07-22T10:46:09;98528.63;;;34.02;43.66
55217;BME280;41086;46.736;15.666;2023-07-22T10:48:38;98528.31;;;34.20;44.06
55217;BME280;41086;46.736;15.666;2023-07-22T10:51:15;98526.81;;;34.34;43.28
55217;BME280;41086;46.736;15.666;2023-07-22T10:53:43;98528.41;;;34.30;43.54
55217;BME280;41086;46.736;15.666;2023-07-22T11:04:21;98523.69;;;34.75;39.79
55217;BME280;41086;46.736;15.666;2023-07-22T11:07:30;98528.91;;;34.49;41.74
55217;BME280;41086;46.736;15.666;2023-07-22T11:09:57;98511.94;;;34.08;43.09
55217;BME280;41086;46.736;15.666;2023-07-22T11:12:24;98509.75;;;33.49;42.76
55217;BME280;41086;46.736;15.666;2023-07-22T11:14:53;98513.78;;;33.81;42.51
55217;BME280;41086;46.736;15.666;2023-07-22T11:17:30;98510.84;;;33.65;44.22
55217;BME280;41086;46.736;15.666;2023-07-22T11:19:59;98498.94;;;33.82;43.69
55217;BME280;41086;46.736;15.666;2023-07-22T11:22:26;98499.53;;;33.84;43.05
55217;BME280;41086;46.736;15.666;2023-07-22T11:24:56;98509.25;;;33.91;43.83
55217;BME280;41086;46.736;15.666;2023-07-22T11:27:26;98509.97;;;34.26;43.24
55217;BME280;41086;46.736;15.666;2023-07-22T11:29:57;98503.03;;;34.01;43.07
55217;BME280;41086;46.736;15.666;2023-07-22T11:32:25;98500.19;;;34.13;43.21
55217;BME280;41086;46.736;15.666;2023-07-22T11:34:52;98492.75;;;34.62;43.67
55217;BME280;41086;46.736;15.666;2023-07-22T11:37:22;98489.19;;;34.40;42.00
55217;BME280;41086;46.736;15.666;2023-07-22T11:39:49;98477.56;;;34.33;42.55
55217;BME280;41086;46.736;15.666;2023-07-22T11:42:16;98492.78;;;34.68;42.74
55217;BME280;41086;46.736;15.666;2023-07-22T11:44:43;98496.72;;;34.77;41.86
55217;BME280;41086;46.736;15.666;2023-07-22T11:47:10;98493.19;;;35.14;41.17
55217;BME280;41086;46.736;15.666;2023-07-22T11:49:40;98489.47;;;35.35;41.01
55217;BME280;41086;46.736;15.666;2023-07-22T11:52:09;98494.63;;;35.69;41.60
55217;BME280;41086;46.736;15.666;2023-07-22T11:54:38;98486.44;;;35.37;39.45
55217;BME280;41086;46.736;15.666;2023-07-22T11:57:22;98481.78;;;35.37;42.25
55217;BME280;41086;46.736;15.666;2023-07-22T11:59:51;98476.91;;;34.75;41.62
55217;BME280;41086;46.736;15.666;2023-07-22T12:02:19;98467.59;;;34.27;42.51
55217;BME280;41086;46.736;15.666;2023-07-22T12:05:03;98476.78;;;34.10;42.56
55217;BME280;41086;46.736;15.666;2023-07-22T12:07:38;98472.13;;;34.11;43.82
55217;BME280;41086;46.736;15.666;2023-07-22T12:10:06;98466.09;;;33.92;43.82
55217;BME280;41086;46.736;15.666;2023-07-22T12:12:43;98475.06;;;33.82;43.72
55217;BME280;41086;46.736;15.666;2023-07-22T12:20:15;98460.50;;;33.43;43.40
55217;BME280;41086;46.736;15.666;2023-07-22T12:22:42;98458.53;;;33.38;43.45
55217;BME280;41086;46.736;15.666;2023-07-22T12:25:11;98460.91;;;33.13;42.45
55217;BME280;41086;46.736;15.666;2023-07-22T12:27:38;98465.53;;;33.29;44.15
55217;BME280;41086;46.736;15.666;2023-07-22T12:30:05;98461.63;;;33.25;44.51
55217;BME280;41086;46.736;15.666;2023-07-22T12:32:34;98451.06;;;33.00;43.23
55217;BME280;41086;46.736;15.666;2023-07-22T12:35:01;98450.75;;;32.96;44.81
55217;BME280;41086;46.736;15.666;2023-07-22T12:37:29;98452.34;;;32.75;44.70
55217;BME280;41086;46.736;15.666;2023-07-22T12:39:56;98455.81;;;32.71;45.99
55217;BME280;41086;46.736;15.666;2023-07-22T12:42:23;98437.91;;;32.63;46.31
55217;BME280;41086;46.736;15.666;2023-07-22T12:44:51;98446.78;;;32.53;45.14
55217;BME280;41086;46.736;15.666;2023-07-22T12:47:18;98440.00;;;32.44;46.94
55217;BME280;41086;46.736;15.666;2023-07-22T12:49:45;98437.22;;;32.27;47.36
55217;BME280;41086;46.736;15.666;2023-07-22T12:52:12;98426.34;;;32.32;46.96
55217;BME280;41086;46.736;15.666;2023-07-22T12:54:41;98433.81;;;32.20;46.87
55217;BME280;41086;46.736;15.666;2023-07-22T12:57:08;98423.09;;;32.18;47.30
55217;BME280;41086;46.736;15.666;2023-07-22T12:59:34;98417.97;;;31.93;47.90
55217;BME280;41086;46.736;15.666;2023-07-22T13:02:01;98410.34;;;31.84;48.01
55217;BME280;41086;46.736;15.666;2023-07-22T13:04:28;98420.78;;;31.70;48.88
55217;BME280;41086;46.736;15.666;2023-07-22T13:06:55;98405.59;;;31.50;49.40